createdAt,value
2022-11-16T00:00:49.355Z,126.97
2022-11-16T00:03:52.617Z,124.60
2022-11-16T00:06:54.917Z,129.30
2022-11-16T00:09:57.116Z,122.32
2022-11-16T00:12:59.549Z,128.48
2022-11-16T00:16:02.009Z,139.02
2022-11-16T00:19:05.037Z,157.87
2022-11-16T00:22:07.257Z,153.20
2022-11-16T00:25:09.844Z,151.23
2022-11-16T00:28:12.363Z,153.27
2022-11-16T00:31:14.902Z,167.82
2022-11-16T00:34:17.282Z,132.60
2022-11-16T00:37:19.437Z,138.18
2022-11-16T00:40:21.944Z,144.18
2022-11-16T00:43:24.808Z,146.30
2022-11-16T00:46:27.316Z,144.80
2022-11-16T00:49:29.585Z,136.47
2022-11-16T00:52:31.960Z,142.57
2022-11-16T00:55:34.847Z,137.95
2022-11-16T00:58:38.583Z,136.55
2022-11-16T01:01:44.073Z,127.88
2022-11-16T01:04:46.460Z,122.57
2022-11-16T01:07:48.955Z,137.10
2022-11-16T01:10:51.213Z,119.70
2022-11-16T01:13:54.186Z,127.88
2022-11-16T01:16:56.381Z,142.30
2022-11-16T01:19:58.542Z,139.00
2022-11-16T01:23:01.077Z,132.75
2022-11-16T01:26:03.673Z,150.05
2022-11-16T01:29:09.652Z,132.85
2022-11-16T01:32:16.578Z,147.30
2022-11-16T01:35:19.833Z,148.37
2022-11-16T01:38:27.116Z,160.00
2022-11-16T01:41:32.458Z,144.40
2022-11-16T01:44:38.384Z,157.82
2022-11-16T01:47:48.221Z,131.70
2022-11-16T01:50:55.183Z,165.97
2022-11-16T01:53:58.531Z,142.48
2022-11-16T01:57:02.080Z,144.20
2022-11-16T02:00:11.310Z,152.20
2022-11-16T02:03:19.080Z,134.75
2022-11-16T02:06:30.582Z,157.17
2022-11-16T02:09:54.067Z,145.48
2022-11-16T02:12:59.741Z,144.90
2022-11-16T02:16:13.609Z,168.57
2022-11-16T02:19:21.752Z,148.00
2022-11-16T02:22:24.174Z,124.53
2022-11-16T02:25:29.589Z,161.95
2022-11-16T02:28:37.954Z,194.88
2022-11-16T02:31:50.091Z,210.88
2022-11-16T02:34:52.291Z,221.45
2022-11-16T02:37:56.479Z,257.20
2022-11-16T02:41:01.823Z,184.82
2022-11-16T02:44:12.132Z,201.30
2022-11-16T02:47:17.941Z,187.00
2022-11-16T02:50:23.361Z,157.05
2022-11-16T02:53:27.501Z,148.27
2022-11-16T02:56:49.751Z,194.27
2022-11-16T02:59:56.687Z,188.57
2022-11-16T03:03:00.813Z,149.13
2022-11-16T03:06:11.525Z,147.45
2022-11-16T03:09:17.280Z,123.87
2022-11-16T03:12:22.640Z,132.98
2022-11-16T03:15:24.987Z,149.93
2022-11-16T03:18:29.104Z,138.20
2022-11-16T03:21:47.260Z,136.23
2022-11-16T03:24:49.530Z,139.20
2022-11-16T03:27:58.288Z,144.68
2022-11-16T03:31:27.102Z,154.25
2022-11-16T03:34:32.249Z,146.45
2022-11-16T03:37:35.626Z,126.55
2022-11-16T03:40:39.493Z,170.20
2022-11-16T03:43:42.267Z,137.60
2022-11-16T03:46:45.420Z,120.20
2022-11-16T03:49:49.324Z,149.68
2022-11-16T03:52:53.853Z,154.48
2022-11-16T03:55:56.103Z,165.03
2022-11-16T03:58:58.799Z,169.70
2022-11-16T04:02:01.307Z,152.98
2022-11-16T04:05:22.359Z,155.70
2022-11-16T04:08:43.321Z,144.55
2022-11-16T04:12:06.264Z,117.87
2022-11-16T04:15:28.455Z,132.55
2022-11-16T04:18:49.465Z,114.88
2022-11-16T04:22:12.248Z,120.70
2022-11-16T04:25:18.329Z,132.35
2022-11-16T04:28:22.659Z,134.23
2022-11-16T04:31:46.278Z,137.63
2022-11-16T04:35:07.283Z,138.85
2022-11-16T04:38:10.151Z,124.97
2022-11-16T04:41:32.826Z,132.20
2022-11-16T04:44:54.295Z,136.47
2022-11-16T04:47:59.379Z,151.50
2022-11-16T04:51:05.925Z,120.65
2022-11-16T04:54:09.428Z,142.35
2022-11-16T04:57:12.026Z,138.43
2022-11-16T05:00:15.312Z,129.47
2022-11-16T05:03:17.582Z,145.90
2022-11-16T05:06:20.298Z,131.30
2022-11-16T05:09:23.603Z,135.82
2022-11-16T05:12:26.999Z,130.95
2022-11-16T05:15:33.535Z,126.53
2022-11-16T05:18:36.618Z,111.97
2022-11-16T05:21:39.778Z,111.68
2022-11-16T05:24:44.480Z,109.78
2022-11-16T05:27:46.932Z,117.10
2022-11-16T05:30:49.498Z,104.63
2022-11-16T05:33:56.376Z,117.88
2022-11-16T05:36:59.419Z,113.38
2022-11-16T05:40:02.063Z,108.13
2022-11-16T05:43:14.827Z,112.60
2022-11-16T05:46:26.290Z,104.50
2022-11-16T05:49:31.164Z,108.00
2022-11-16T05:52:33.998Z,108.47
2022-11-16T05:55:41.082Z,96.00
2022-11-16T05:58:44.064Z,104.05
2022-11-16T06:01:47.269Z,93.10
2022-11-16T06:04:49.410Z,119.30
2022-11-16T06:07:51.958Z,102.35
2022-11-16T06:10:54.449Z,96.28
2022-11-16T06:13:56.986Z,112.13
2022-11-16T06:16:59.596Z,100.27
2022-11-16T06:20:01.948Z,109.47
2022-11-16T06:23:04.846Z,117.95
2022-11-16T06:26:08.013Z,120.85
2022-11-16T06:29:22.018Z,113.93
2022-11-16T06:32:25.587Z,103.07
2022-11-16T06:35:30.222Z,108.38
2022-11-16T06:38:33.386Z,105.63
2022-11-16T06:41:41.369Z,101.32
2022-11-16T06:44:47.031Z,98.97
2022-11-16T06:47:51.744Z,101.07
2022-11-16T06:50:56.738Z,110.95
2022-11-16T06:54:34.411Z,107.05
2022-11-16T06:57:48.960Z,119.40
2022-11-16T07:00:53.689Z,130.30
2022-11-16T07:03:57.966Z,129.30
2022-11-16T07:07:01.150Z,131.18
2022-11-16T07:10:05.271Z,131.15
2022-11-16T07:13:08.622Z,113.30
2022-11-16T07:16:13.980Z,109.50
2022-11-16T07:19:21.642Z,105.20
2022-11-16T07:22:25.444Z,97.78
2022-11-16T07:25:29.330Z,95.57
2022-11-16T07:28:34.644Z,97.32
2022-11-16T07:31:38.025Z,97.82
2022-11-16T07:35:10.435Z,92.23
2022-11-16T07:38:18.027Z,92.75
2022-11-16T07:41:22.012Z,90.85
2022-11-16T07:44:34.146Z,95.85
2022-11-16T07:47:41.406Z,96.00
2022-11-16T07:50:48.961Z,99.87
2022-11-16T07:53:53.548Z,125.55
2022-11-16T07:56:56.772Z,117.45
2022-11-16T08:00:01.151Z,113.80
2022-11-16T08:03:24.395Z,109.88
2022-11-16T08:06:30.920Z,107.13
2022-11-16T08:09:39.917Z,108.70
2022-11-16T08:12:55.029Z,97.80
2022-11-16T08:16:08.899Z,106.68
2022-11-16T08:19:14.109Z,112.43
2022-11-16T08:22:16.830Z,125.77
2022-11-16T08:25:20.603Z,121.80
2022-11-16T08:28:23.373Z,117.20
2022-11-16T08:31:28.649Z,115.45
2022-11-16T08:34:40.797Z,102.72
2022-11-16T08:37:43.182Z,88.67
2022-11-16T08:40:46.023Z,95.45
2022-11-16T08:43:50.624Z,87.22
2022-11-16T08:46:55.163Z,69.03
2022-11-16T08:50:05.034Z,78.43
2022-11-16T08:53:10.873Z,87.47
2022-11-16T08:56:13.831Z,78.68
2022-11-16T08:59:22.442Z,79.93
2022-11-16T09:02:29.653Z,70.82
2022-11-16T09:05:32.953Z,66.75
2022-11-16T09:08:37.788Z,71.80
2022-11-16T09:11:40.402Z,76.00
2022-11-16T09:14:50.663Z,87.20
2022-11-16T09:17:55.857Z,75.28
2022-11-16T09:20:58.276Z,71.85
2022-11-16T09:24:04.557Z,78.60
2022-11-16T09:27:10.165Z,65.82
2022-11-16T09:30:18.009Z,74.65
2022-11-16T09:33:25.701Z,74.45
2022-11-16T09:39:49.998Z,71.57
2022-11-16T09:42:52.693Z,62.55
2022-11-16T09:46:15.395Z,64.38
2022-11-16T09:49:29.171Z,65.00
2022-11-16T09:52:41.037Z,71.00
2022-11-16T09:55:48.094Z,65.53
2022-11-16T09:59:07.711Z,70.20
2022-11-16T10:02:28.815Z,85.60
2022-11-16T10:05:31.342Z,89.22
2022-11-16T10:08:36.454Z,88.72
2022-11-16T10:11:44.665Z,86.53
2022-11-16T10:15:04.929Z,89.03
2022-11-16T10:18:17.346Z,88.97
2022-11-16T10:21:25.387Z,78.88
2022-11-16T10:24:29.865Z,81.00
2022-11-16T10:27:48.506Z,71.17
2022-11-16T10:31:01.043Z,82.65
2022-11-16T10:34:06.822Z,77.30
2022-11-16T10:37:12.966Z,75.22
2022-11-16T10:40:18.036Z,80.35
2022-11-16T10:43:26.169Z,71.67
2022-11-16T10:46:37.193Z,73.50
2022-11-16T10:49:54.493Z,70.22
2022-11-16T10:53:02.013Z,71.13
2022-11-16T10:56:52.834Z,67.65
2022-11-16T10:59:58.652Z,70.23
2022-11-16T11:03:01.043Z,75.50
2022-11-16T11:06:04.703Z,72.45
2022-11-16T11:09:25.575Z,66.60
2022-11-16T11:12:40.559Z,71.60
2022-11-16T11:15:43.114Z,70.70
2022-11-16T11:18:46.340Z,69.53
2022-11-16T11:21:49.204Z,79.80
2022-11-16T11:24:53.263Z,72.25
2022-11-16T11:28:16.618Z,80.38
2022-11-16T11:31:30.587Z,75.47
2022-11-16T11:34:41.962Z,70.97
2022-11-16T11:37:48.001Z,76.95
2022-11-16T11:45:15.648Z,73.93
2022-11-16T11:48:49.480Z,71.13
2022-11-16T11:51:57.771Z,69.07
2022-11-16T11:55:01.811Z,72.32
2022-11-16T11:58:06.976Z,75.50
2022-11-16T12:01:28.587Z,68.15
2022-11-16T12:04:50.663Z,60.60
2022-11-16T12:08:08.987Z,79.45
2022-11-16T12:11:11.191Z,78.10
2022-11-16T12:14:35.374Z,73.65
2022-11-16T12:17:57.896Z,79.07
2022-11-16T12:21:21.087Z,80.03
2022-11-16T12:24:23.578Z,81.05
2022-11-16T12:27:47.440Z,77.30
2022-11-16T12:31:00.321Z,74.45
2022-11-16T12:34:21.401Z,77.43
2022-11-16T12:37:34.467Z,80.33
2022-11-16T12:40:36.803Z,77.95
2022-11-16T12:43:48.624Z,86.20
2022-11-16T12:46:59.934Z,76.88
2022-11-16T12:50:05.597Z,84.10
2022-11-16T12:53:36.958Z,76.93
2022-11-16T12:56:56.444Z,83.35
2022-11-16T13:00:12.146Z,80.47
2022-11-16T13:03:18.490Z,71.90
2022-11-16T13:06:27.958Z,73.18
2022-11-16T13:09:36.348Z,69.07
2022-11-16T13:12:39.534Z,65.05
2022-11-16T13:15:42.715Z,76.88
2022-11-16T13:18:45.370Z,73.68
2022-11-16T13:21:55.961Z,69.53
2022-11-16T13:25:28.056Z,66.17
2022-11-16T13:28:36.417Z,73.78
2022-11-16T13:31:53.066Z,70.82
2022-11-16T13:34:55.814Z,71.63
2022-11-16T13:37:58.076Z,78.82
2022-11-16T13:41:19.054Z,69.70
2022-11-16T13:44:21.301Z,71.85
2022-11-16T13:47:28.134Z,64.43
2022-11-16T13:50:38.356Z,60.28
2022-11-16T13:57:20.223Z,51.67
2022-11-16T14:00:24.194Z,55.95
2022-11-16T14:03:29.256Z,62.10
2022-11-16T14:06:31.805Z,60.33
2022-11-16T14:09:43.991Z,68.72
2022-11-16T14:12:53.897Z,67.10
2022-11-16T14:16:15.541Z,68.40
2022-11-16T14:19:37.250Z,78.85
2022-11-16T14:22:40.081Z,71.20
2022-11-16T14:26:15.242Z,76.00
2022-11-16T14:29:23.561Z,77.73
2022-11-16T14:32:28.939Z,70.22
2022-11-16T14:35:34.367Z,74.10
2022-11-16T14:38:42.951Z,61.83
2022-11-16T14:41:47.072Z,74.13
2022-11-16T14:44:49.964Z,68.10
2022-11-16T14:47:53.547Z,66.50
2022-11-16T14:50:59.869Z,61.03
2022-11-16T14:54:04.796Z,59.13
2022-11-16T14:57:11.891Z,66.38
2022-11-16T15:00:18.058Z,62.00
2022-11-16T15:03:22.071Z,62.90
2022-11-16T15:06:25.407Z,61.70
2022-11-16T15:09:36.432Z,63.47
2022-11-16T15:12:42.136Z,65.03
2022-11-16T15:15:45.171Z,55.13
2022-11-16T15:19:00.881Z,59.10
2022-11-16T15:22:04.358Z,59.65
2022-11-16T15:25:06.868Z,59.33
2022-11-16T15:28:20.554Z,61.15
2022-11-16T15:31:23.388Z,55.63
2022-11-16T15:34:25.649Z,70.28
2022-11-16T15:37:30.962Z,61.97
2022-11-16T15:40:34.077Z,52.58
2022-11-16T15:43:45.014Z,54.55
2022-11-16T15:46:54.439Z,54.07
2022-11-16T15:49:57.010Z,47.80
2022-11-16T15:53:00.090Z,52.30
2022-11-16T15:56:03.554Z,42.58
2022-11-16T15:59:13.471Z,53.58
2022-11-16T16:02:18.398Z,55.57
2022-11-16T16:05:32.103Z,44.55
2022-11-16T16:08:38.271Z,47.80
2022-11-16T16:11:40.606Z,55.17
2022-11-16T16:14:43.208Z,48.08
2022-11-16T16:17:48.888Z,49.90
2022-11-16T16:20:51.138Z,57.85
2022-11-16T16:23:54.351Z,48.28
2022-11-16T16:26:56.550Z,46.92
2022-11-16T16:30:02.442Z,54.75
2022-11-16T16:33:05.496Z,49.20
2022-11-16T16:36:08.123Z,56.92
2022-11-16T16:39:10.336Z,60.50
2022-11-16T16:42:13.810Z,53.97
2022-11-16T16:45:18.971Z,59.40
2022-11-16T16:48:21.291Z,60.00
2022-11-16T16:51:23.709Z,61.05
2022-11-16T16:54:26.168Z,55.80
2022-11-16T16:57:28.451Z,52.35
2022-11-16T17:00:30.741Z,57.83
2022-11-16T17:03:33.581Z,56.77
2022-11-16T17:06:36.033Z,65.05
2022-11-16T17:09:38.559Z,55.67
2022-11-16T17:12:41.762Z,65.32
2022-11-16T17:15:44.307Z,63.22
2022-11-16T17:18:47.389Z,66.70
2022-11-16T17:21:51.053Z,63.58
2022-11-16T17:24:53.391Z,68.90
2022-11-16T17:27:55.575Z,72.90
2022-11-16T17:31:08.445Z,82.32
2022-11-16T17:34:13.792Z,69.47
2022-11-16T17:37:17.049Z,87.57
2022-11-16T17:40:19.533Z,77.95
2022-11-16T17:43:21.870Z,65.53
2022-11-16T17:46:26.200Z,81.57
2022-11-16T17:49:28.553Z,77.50
2022-11-16T17:52:31.002Z,79.30
2022-11-16T17:55:33.331Z,74.47
2022-11-16T17:58:35.591Z,68.93
2022-11-16T18:01:38.106Z,83.40
2022-11-16T18:04:40.400Z,88.97
2022-11-16T18:07:42.679Z,85.10
2022-11-16T18:10:46.195Z,73.47
2022-11-16T18:13:51.569Z,76.03
2022-11-16T18:16:53.849Z,71.43
2022-11-16T18:19:56.171Z,70.90
2022-11-16T18:22:59.274Z,78.20
2022-11-16T18:26:03.483Z,69.63
2022-11-16T18:29:06.772Z,64.20
2022-11-16T18:32:09.528Z,66.78
2022-11-16T18:35:11.999Z,70.37
2022-11-16T18:38:14.847Z,73.25
2022-11-16T18:41:17.310Z,81.35
2022-11-16T18:44:19.716Z,79.60
2022-11-16T18:47:22.062Z,66.38
2022-11-16T18:50:26.988Z,75.93
2022-11-16T18:53:33.355Z,68.57
2022-11-16T18:56:36.271Z,67.15
2022-11-16T18:59:38.558Z,69.88
2022-11-16T19:02:41.113Z,70.22
2022-11-16T19:05:43.806Z,64.03
2022-11-16T19:08:53.778Z,77.85
2022-11-16T19:11:57.488Z,73.30
2022-11-16T19:14:59.876Z,70.70
2022-11-16T19:18:20.572Z,71.13
2022-11-16T19:21:24.439Z,71.20
2022-11-16T19:24:26.792Z,86.82
2022-11-16T19:27:29.777Z,88.43
2022-11-16T19:30:32.172Z,92.22
2022-11-16T19:33:35.040Z,92.93
2022-11-16T19:36:37.729Z,85.40
2022-11-16T19:39:40.531Z,82.82
2022-11-16T19:42:43.480Z,78.32
2022-11-16T19:45:49.595Z,77.93
2022-11-16T19:48:52.396Z,73.68
2022-11-16T19:51:54.802Z,86.20
2022-11-16T19:54:57.337Z,77.63
2022-11-16T19:57:59.782Z,82.57
2022-11-16T20:01:06.563Z,74.22
2022-11-16T20:04:09.424Z,78.00
2022-11-16T20:07:13.495Z,79.07
2022-11-16T20:10:16.292Z,65.55
2022-11-16T20:13:18.660Z,70.53
2022-11-16T20:16:23.409Z,72.55
2022-11-16T20:19:25.811Z,66.10
2022-11-16T20:22:28.321Z,61.97
2022-11-16T20:25:30.558Z,71.63
2022-11-16T20:28:36.824Z,60.35
2022-11-16T20:31:42.521Z,54.25
2022-11-16T20:34:44.833Z,61.63
2022-11-16T20:37:47.116Z,74.20
2022-11-16T20:40:49.378Z,69.70
2022-11-16T20:43:52.953Z,69.85
2022-11-16T20:46:55.214Z,63.78
2022-11-16T20:49:58.854Z,68.95
2022-11-16T20:53:01.206Z,68.77
2022-11-16T20:56:04.056Z,64.28
2022-11-16T20:59:06.380Z,68.47
2022-11-16T21:02:10.029Z,66.32
2022-11-16T21:05:12.376Z,65.80
2022-11-16T21:08:14.609Z,70.77
2022-11-16T21:11:21.678Z,68.18
2022-11-16T21:14:23.922Z,59.40
2022-11-16T21:17:26.169Z,54.83
2022-11-16T21:20:28.882Z,65.47
2022-11-16T21:23:32.412Z,70.70
2022-11-16T21:26:35.186Z,66.30
2022-11-16T21:29:37.352Z,59.88
2022-11-16T21:32:39.621Z,58.88
2022-11-16T21:35:41.812Z,59.60
2022-11-16T21:38:44.465Z,62.37
2022-11-16T21:41:46.718Z,64.93
2022-11-16T21:44:48.929Z,59.80
2022-11-16T21:47:51.160Z,60.67
2022-11-16T21:51:00.296Z,63.33
2022-11-16T21:54:02.549Z,67.83
2022-11-16T21:57:04.779Z,81.22
2022-11-16T22:00:07.227Z,73.03
2022-11-16T22:03:13.706Z,71.55
2022-11-16T22:06:34.696Z,63.05
2022-11-16T22:09:37.335Z,69.17
2022-11-16T22:12:39.906Z,69.50
2022-11-16T22:15:42.436Z,70.43
2022-11-16T22:18:44.768Z,62.92
2022-11-16T22:21:46.925Z,72.45
2022-11-16T22:24:49.205Z,73.50
2022-11-16T22:28:19.081Z,64.88
2022-11-16T22:31:14.701Z,73.85
2022-11-16T22:34:16.889Z,64.85
2022-11-16T22:37:19.125Z,68.72
2022-11-16T22:40:21.385Z,62.73
2022-11-16T22:43:27.774Z,66.43
2022-11-16T22:46:29.986Z,60.55
2022-11-16T22:49:32.141Z,66.30
2022-11-16T22:52:34.335Z,67.43
2022-11-16T22:55:37.271Z,66.53
2022-11-16T22:58:40.009Z,66.18
2022-11-16T23:01:42.254Z,57.72
2022-11-16T23:04:44.446Z,60.97
2022-11-16T23:07:46.581Z,62.03
2022-11-16T23:11:07.369Z,52.17
2022-11-16T23:14:29.742Z,52.15
2022-11-16T23:17:32.162Z,50.67
2022-11-16T23:20:53.145Z,44.08
2022-11-16T23:24:24.279Z,49.25
2022-11-16T23:27:30.839Z,46.27
2022-11-16T23:30:33.975Z,46.90
2022-11-16T23:33:45.191Z,42.63
2022-11-16T23:36:47.343Z,46.80
2022-11-16T23:39:49.625Z,45.13
2022-11-16T23:43:10.886Z,39.97
2022-11-16T23:46:13.056Z,43.97
2022-11-16T23:49:15.177Z,46.60
2022-11-16T23:52:17.350Z,48.33
2022-11-16T23:55:19.527Z,50.20
2022-11-16T23:58:21.694Z,54.40
